Time;durP1;ratioP1;P1;durP2;ratioP2;P2;SDS_P1;SDS_P2;PMS_P1;PMS_P2;Temp;Humidity;BMP_temperature;BMP_pressure;BME280_temperature;BME280_humidity;BME280_pressure;Samples;Min_cycle;Max_cycle;Signal;HPM_P1;HPM_P2
2021/07/06 00:01:13;;;;;;;12.70;6.28;;;;;;;20.42;100.00;98922.95;1771250;81;21787;-78
2021/07/06 00:04:18;;;;;;;12.78;6.15;;;;;;;20.38;100.00;98925.99;1771172;81;21359;-78
2021/07/06 00:07:25;;;;;;;22.15;6.10;;;;;;;20.33;100.00;98933.48;1769821;80;21227;-78
2021/07/06 00:10:35;;;;;;;16.73;5.87;;;;;;;20.30;100.00;98922.91;1779354;80;21187;-78
2021/07/06 00:13:40;;;;;;;14.93;5.78;;;;;;;20.28;100.00;98920.42;1779321;80;21800;-78
2021/07/06 00:16:45;;;;;;;18.05;5.58;;;;;;;20.23;100.00;98924.58;1779064;80;21347;-78
2021/07/06 00:19:52;;;;;;;24.98;6.37;;;;;;;20.20;100.00;98932.05;1777689;80;21248;-78
2021/07/06 00:22:57;;;;;;;15.95;6.70;;;;;;;20.18;100.00;98934.24;1779460;80;21232;-78
2021/07/06 00:26:03;;;;;;;16.87;5.97;;;;;;;20.15;100.00;98935.64;1779513;80;21482;-78
2021/07/06 00:29:09;;;;;;;11.65;5.60;;;;;;;20.13;100.00;98932.84;1779518;80;21243;-78
2021/07/06 00:32:15;;;;;;;17.82;5.62;;;;;;;20.10;100.00;98932.84;1779510;80;21303;-78
2021/07/06 00:35:21;;;;;;;10.85;4.50;;;;;;;20.08;100.00;98927.27;1779930;80;21359;-78
2021/07/06 00:38:27;;;;;;;15.03;4.78;;;;;;;20.06;100.00;98928.11;1778092;80;21426;-78
2021/07/06 00:41:37;;;;;;;12.23;4.58;;;;;;;20.01;100.00;98928.92;1779551;80;21164;-78
2021/07/06 00:44:41;;;;;;;;;;;;;;;19.98;100.00;98923.91;1782163;80;21892;-78
2021/07/06 00:47:47;;;;;;;13.98;4.25;;;;;;;19.96;100.00;98928.08;1778776;80;20299;-78
2021/07/06 00:50:53;;;;;;;15.55;4.50;;;;;;;19.93;100.00;98926.66;1779560;80;21877;-78
2021/07/06 00:53:59;;;;;;;13.08;4.97;;;;;;;19.93;100.00;98933.60;1779586;80;21349;-78
2021/07/06 00:57:06;;;;;;;12.80;4.50;;;;;;;19.90;100.00;98928.06;1778084;80;22544;-78
2021/07/06 01:00:24;;;;;;;11.08;4.45;;;;;;;19.89;100.00;98925.53;1778132;80;21303;-78
2021/07/06 01:03:33;;;;;;;13.98;4.25;;;;;;;19.89;100.00;98922.75;1778395;80;21188;-78
2021/07/06 01:06:37;;;;;;;14.98;3.98;;;;;;;19.89;100.00;98922.75;1779493;80;21585;-78
2021/07/06 01:09:45;;;;;;;13.03;4.10;;;;;;;19.88;100.00;98933.58;1758995;80;21232;-78
2021/07/06 01:12:53;;;;;;;20.43;4.90;;;;;;;19.87;100.00;98927.20;1744858;82;21874;-78
2021/07/06 01:15:59;;;;;;;10.78;3.70;;;;;;;19.86;100.00;98928.31;1746881;82;21263;-78
2021/07/06 01:19:04;;;;;;;7.12;3.62;;;;;;;19.85;100.00;98929.95;1744980;82;22600;-78
2021/07/06 01:22:14;;;;;;;12.15;3.95;;;;;;;19.83;100.00;98933.00;1746039;82;21311;-78
2021/07/06 01:27:51;;;;;;;12.63;4.40;;;;;;;19.85;100.00;98934.11;1877172;76;28034;-78
2021/07/06 01:30:57;;;;;;;17.98;4.17;;;;;;;19.80;100.00;98929.38;1850717;77;21284;-79
2021/07/06 01:34:05;;;;;;;10.23;4.72;;;;;;;19.79;100.00;98927.70;1781740;80;21295;-78
2021/07/06 01:37:11;;;;;;;20.52;3.85;;;;;;;19.79;100.00;98929.09;1780674;80;21311;-79
2021/07/06 01:40:16;;;;;;;9.15;4.05;;;;;;;19.78;100.00;98937.70;1781654;80;21296;-79
2021/07/06 01:43:24;;;;;;;14.70;3.77;;;;;;;19.75;100.00;98937.67;1781758;80;21185;-78
2021/07/06 01:46:28;;;;;;;15.00;3.92;;;;;;;19.72;100.00;98938.78;1781178;80;21330;-78
2021/07/06 01:49:35;;;;;;;17.42;4.75;;;;;;;19.72;100.00;98938.23;1781657;80;21287;-78
2021/07/06 01:52:40;;;;;;;13.28;3.90;;;;;;;19.71;100.00;98940.70;1781761;80;21712;-77
2021/07/06 01:55:47;;;;;;;13.40;4.50;;;;;;;19.72;100.00;98941.56;1781688;80;21323;-78
2021/07/06 01:58:54;;;;;;;14.20;4.20;;;;;;;19.71;100.00;98939.86;1781757;80;21319;-78
2021/07/06 02:02:01;;;;;;;17.48;4.45;;;;;;;19.73;100.00;98944.05;1781751;80;21486;-78
2021/07/06 02:05:13;;;;;;;20.10;5.10;;;;;;;19.73;100.00;98946.83;1781736;80;21637;-78
2021/07/06 02:08:25;;;;;;;18.67;4.80;;;;;;;19.74;100.00;98954.03;1773371;80;21299;-78
2021/07/06 02:11:31;;;;;;;16.50;4.83;;;;;;;19.76;100.00;98962.08;1781500;80;21343;-79
2021/07/06 02:14:38;;;;;;;15.95;5.85;;;;;;;19.79;100.00;98964.33;1750861;82;21316;-78
2021/07/06 02:17:44;;;;;;;10.78;4.15;;;;;;;19.78;100.00;98958.50;1748261;82;21204;-78
2021/07/06 02:20:50;;;;;;;15.05;5.85;;;;;;;19.79;100.00;98959.61;1749164;82;21822;-78
2021/07/06 02:23:55;;;;;;;19.23;6.17;;;;;;;19.80;100.00;98961.83;1749199;82;21367;-77
2021/07/06 02:27:01;;;;;;;13.95;6.55;;;;;;;19.82;100.00;98967.41;1745457;82;21334;-78
2021/07/06 02:30:07;;;;;;;14.93;7.20;;;;;;;19.85;100.00;98971.56;1741298;82;21307;-78
2021/07/06 02:33:12;;;;;;;17.37;6.97;;;;;;;19.86;100.00;98968.55;1741670;82;21304;-78
2021/07/06 02:36:18;;;;;;;20.88;7.20;;;;;;;19.89;100.00;98964.37;1741239;82;21878;-78
2021/07/06 02:39:25;;;;;;;14.05;7.75;;;;;;;19.94;100.00;98975.50;1740765;82;21315;-77
2021/07/06 02:42:31;;;;;;;15.53;8.23;;;;;;;19.96;100.00;98976.64;1740263;82;21355;-77
2021/07/06 02:45:36;;;;;;;11.00;6.78;;;;;;;19.99;100.00;98964.98;1740699;82;21359;-77
2021/07/06 02:48:43;;;;;;;22.15;8.85;;;;;;;20.03;100.00;98975.83;1739502;82;21228;-78
2021/07/06 02:51:49;;;;;;;19.80;8.58;;;;;;;20.07;100.00;98965.85;1740799;82;21185;-78
2021/07/06 02:54:56;;;;;;;19.07;8.75;;;;;;;20.11;100.00;98969.20;1740701;82;21303;-78
2021/07/06 02:58:02;;;;;;;13.78;6.50;;;;;;;20.14;100.00;98964.52;1739194;82;21236;-79
2021/07/06 03:01:08;;;;;;;9.58;7.90;;;;;;;20.17;100.00;98979.77;1739317;82;21867;-78
2021/07/06 03:04:14;;;;;;;12.43;7.80;;;;;;;20.20;100.00;98968.69;1740734;82;21173;-79
2021/07/06 03:07:19;;;;;;;12.90;8.30;;;;;;;20.23;100.00;98968.98;1740560;82;21336;-79
2021/07/06 03:10:29;;;;;;;17.00;8.23;;;;;;;20.25;100.00;98975.09;1740607;82;21906;-78
2021/07/06 03:13:35;;;;;;;18.27;8.90;;;;;;;20.27;100.00;98974.81;1739970;82;21339;-78
2021/07/06 03:16:40;;;;;;;17.80;9.08;;;;;;;20.27;100.00;98981.75;1740719;82;21800;-78
2021/07/06 03:19:46;;;;;;;13.10;9.55;;;;;;;20.29;100.00;98976.78;1740736;82;21307;-78
2021/07/06 03:22:52;;;;;;;16.82;9.10;;;;;;;20.29;100.00;98974.84;1740793;82;21245;-78
2021/07/06 03:25:57;;;;;;;17.02;9.95;;;;;;;20.30;100.00;98977.88;1740533;82;21305;-79
2021/07/06 03:29:03;;;;;;;16.37;11.40;;;;;;;20.33;100.00;98969.58;1737967;82;21220;-78
2021/07/06 03:32:07;;;;;;;19.48;10.50;;;;;;;20.46;100.00;98971.81;1740758;82;21375;-78
2021/07/06 03:35:14;;;;;;;17.75;10.43;;;;;;;20.56;100.00;98971.04;1736291;82;21297;-78
2021/07/06 03:38:20;;;;;;;13.72;9.43;;;;;;;20.62;100.00;98969.41;1745107;82;21736;-78
2021/07/06 03:41:26;;;;;;;12.93;10.45;;;;;;;20.66;100.00;98977.48;1723655;82;21199;-78
2021/07/06 03:44:32;;;;;;;15.15;9.73;;;;;;;20.65;100.00;98974.42;1745327;82;21319;-78
2021/07/06 03:47:37;;;;;;;17.32;10.28;;;;;;;20.61;100.00;98973.86;1774769;81;21330;-78
2021/07/06 03:50:44;;;;;;;16.73;10.32;;;;;;;20.61;100.00;98981.63;1775720;81;21654;-78
2021/07/06 03:53:50;;;;;;;12.03;8.85;;;;;;;20.60;100.00;98981.33;1776217;81;21236;-78
2021/07/06 03:56:56;;;;;;;12.07;8.88;;;;;;;20.61;100.00;98983.58;1776148;81;21899;-78
2021/07/06 04:00:04;;;;;;;13.25;8.28;;;;;;;20.62;100.00;98986.07;1771385;81;21323;-78
2021/07/06 04:03:09;;;;;;;12.65;8.18;;;;;;;20.62;100.00;98990.23;1742247;82;21297;-78
2021/07/06 04:06:15;;;;;;;12.37;7.90;;;;;;;20.60;100.00;98984.66;1740733;82;21189;-78
2021/07/06 04:09:20;;;;;;;11.25;7.33;;;;;;;20.60;100.00;98982.72;1739955;82;21351;-78
2021/07/06 04:12:25;;;;;;;13.70;7.62;;;;;;;20.58;100.00;98993.28;1739915;82;21346;-78
2021/07/06 04:15:31;;;;;;;14.85;7.95;;;;;;;20.58;100.00;98986.34;1740940;82;21747;-78
2021/07/06 04:18:37;;;;;;;8.80;7.40;;;;;;;20.56;100.00;98983.02;1740375;82;21311;-78
2021/07/06 04:21:43;;;;;;;9.10;6.62;;;;;;;20.58;100.00;99003.00;1740709;82;21304;-78
2021/07/06 04:24:50;;;;;;;11.38;7.40;;;;;;;20.60;99.76;98981.33;1740737;82;21299;-78
2021/07/06 04:27:55;;;;;;;17.10;6.95;;;;;;;20.63;99.14;98987.73;1740659;82;21838;-79
2021/07/06 04:31:00;;;;;;;12.25;6.92;;;;;;;20.67;98.59;99006.09;1731904;82;21828;-79
2021/07/06 04:34:06;;;;;;;12.00;6.72;;;;;;;20.70;97.61;98999.12;1802915;79;21280;-79
2021/07/06 04:37:12;;;;;;;14.15;6.90;;;;;;;20.76;97.75;99003.05;1763060;81;21224;-79
2021/07/06 04:40:19;;;;;;;11.53;7.03;;;;;;;20.89;96.09;98989.19;1802315;79;21153;-79
2021/07/06 04:43:25;;;;;;;13.22;6.60;;;;;;;21.03;94.89;98992.23;1765621;81;21158;-79
2021/07/06 04:46:31;;;;;;;9.53;6.20;;;;;;;21.10;93.12;98989.47;1803769;79;21255;-79
2021/07/06 04:49:38;;;;;;;15.05;5.58;;;;;;;21.16;92.05;98991.13;1765547;81;21296;-79
2021/07/06 04:52:49;;;;;;;18.57;6.28;;;;;;;21.22;91.31;98985.57;1803745;79;21673;-79
2021/07/06 04:55:55;;;;;;;8.00;6.62;;;;;;;21.27;91.91;98989.77;1763167;81;21351;-79
2021/07/06 04:59:02;;;;;;;11.20;6.22;;;;;;;21.27;91.11;99004.50;1801159;79;21300;-79
2021/07/06 05:02:08;;;;;;;8.75;6.08;;;;;;;21.25;90.33;99003.10;1765582;81;21248;-79
2021/07/06 05:05:13;;;;;;;11.40;6.72;;;;;;;21.26;90.50;99001.98;1792570;79;21782;-79
2021/07/06 05:08:18;;;;;;;12.98;6.37;;;;;;;21.30;90.54;98996.98;1772044;81;21303;-79
2021/07/06 05:11:24;;;;;;;7.83;7.03;;;;;;;21.35;90.71;99017.03;1794316;79;21820;-78
2021/07/06 05:14:29;;;;;;;9.53;7.97;;;;;;;21.39;90.54;99000.07;1793953;79;21173;-78
2021/07/06 05:17:36;;;;;;;14.45;7.30;;;;;;;21.48;90.51;98996.17;1789278;79;21240;-79
2021/07/06 05:20:43;;;;;;;13.60;7.62;;;;;;;21.56;90.18;99003.41;1785470;79;21248;-78
2021/07/06 05:23:49;;;;;;;10.35;7.53;;;;;;;21.65;89.35;99011.46;1784428;79;21236;-79
2021/07/06 05:26:54;;;;;;;10.00;7.65;;;;;;;21.75;89.37;99004.22;1739199;81;21205;-79
2021/07/06 05:30:00;;;;;;;9.78;7.20;;;;;;;21.76;88.92;99002.53;1783010;79;21842;-79
2021/07/06 05:33:05;;;;;;;11.60;7.55;;;;;;;21.75;88.58;99002.83;1785660;79;21181;-79
2021/07/06 05:36:11;;;;;;;11.90;7.00;;;;;;;21.73;88.74;99008.65;1792129;79;21208;-78
2021/07/06 05:39:18;;;;;;;12.30;7.40;;;;;;;21.74;88.92;99016.44;1788920;79;21287;-79
2021/07/06 05:42:23;;;;;;;13.83;6.70;;;;;;;21.72;89.06;99015.90;1779027;79;21803;-79
2021/07/06 05:45:30;;;;;;;7.37;6.53;;;;;;;21.70;89.12;99014.80;1784536;79;21358;-79
2021/07/06 05:48:35;;;;;;;7.50;6.75;;;;;;;21.64;89.17;99007.55;1791108;79;21423;-79
2021/07/06 05:51:41;;;;;;;8.60;6.65;;;;;;;21.63;89.37;99010.89;1794512;79;21232;-79
2021/07/06 05:54:46;;;;;;;9.60;6.12;;;;;;;21.66;89.73;99014.52;1786756;79;21625;-78
2021/07/06 05:57:52;;;;;;;8.40;6.42;;;;;;;21.71;90.06;99023.97;1777500;79;21902;-79
2021/07/06 06:00:57;;;;;;;7.78;6.72;;;;;;;21.78;89.33;99031.46;1788520;79;21905;-79
2021/07/06 06:04:02;;;;;;;7.87;6.65;;;;;;;21.83;89.57;99022.57;1794099;79;21386;-79
2021/07/06 06:07:07;;;;;;;11.95;6.00;;;;;;;21.87;89.41;99023.65;1785042;79;21291;-79
2021/07/06 06:10:15;;;;;;;13.13;7.03;;;;;;;21.94;89.31;99015.02;1787011;79;21263;-79
2021/07/06 06:13:21;;;;;;;10.75;6.20;;;;;;;22.05;88.68;99023.61;1789666;79;21259;-79
2021/07/06 06:16:26;;;;;;;14.60;7.03;;;;;;;22.11;88.54;99014.68;1793050;79;21299;-79
2021/07/06 06:19:32;;;;;;;10.45;6.28;;;;;;;22.13;88.43;99040.34;1746524;81;21209;-78
2021/07/06 06:22:38;;;;;;;8.18;6.45;;;;;;;22.11;87.58;99035.06;1728816;82;21191;-79
2021/07/06 06:25:45;;;;;;;14.47;6.90;;;;;;;22.14;87.06;99031.69;1745231;81;21296;-79
2021/07/06 06:28:51;;;;;;;7.90;6.30;;;;;;;22.20;86.75;99034.73;1744576;81;21162;-79
2021/07/06 06:31:56;;;;;;;8.20;6.42;;;;;;;22.28;86.24;99032.49;1743063;81;21942;-79
2021/07/06 06:35:02;;;;;;;8.55;6.05;;;;;;;22.38;85.07;99042.20;1750932;81;21295;-79
2021/07/06 06:38:08;;;;;;;16.15;6.25;;;;;;;22.52;84.87;99038.24;1743135;81;21300;-79
2021/07/06 06:41:13;;;;;;;8.03;5.37;;;;;;;22.63;83.97;99042.10;1761139;81;21335;-79
2021/07/06 06:44:19;;;;;;;5.80;5.20;;;;;;;22.74;82.92;99055.42;1726541;82;21169;-79
2021/07/06 06:47:25;;;;;;;6.83;4.58;;;;;;;22.90;81.40;99050.61;1720027;82;21373;-79
2021/07/06 06:50:30;;;;;;;7.67;4.97;;;;;;;23.10;80.83;99046.86;1733650;82;21366;-79
2021/07/06 06:53:36;;;;;;;6.75;4.67;;;;;;;23.28;80.37;99040.59;1748936;81;21929;-79
2021/07/06 06:56:43;;;;;;;8.63;4.40;;;;;;;23.43;78.86;99052.20;1753008;81;21283;-77
2021/07/06 06:59:49;;;;;;;8.90;4.55;;;;;;;23.44;78.40;99046.91;1729155;82;21832;-79
2021/07/06 07:02:55;;;;;;;6.40;4.95;;;;;;;23.46;78.25;99044.64;1737178;81;21326;-79
2021/07/06 07:06:02;;;;;;;8.78;4.50;;;;;;;23.53;78.38;99049.34;1758744;81;21321;-78
2021/07/06 07:09:12;;;;;;;6.75;4.00;;;;;;;23.57;78.13;99040.66;1758685;81;21686;-79
2021/07/06 07:12:17;;;;;;;11.95;4.20;;;;;;;23.53;78.45;99047.95;1720151;82;21269;-79
2021/07/06 07:15:25;;;;;;;4.62;3.75;;;;;;;23.43;78.57;99038.24;1729110;82;21285;-78
2021/07/06 07:18:31;;;;;;;4.53;3.55;;;;;;;23.29;79.02;99041.42;1727084;82;21817;-78
2021/07/06 07:21:36;;;;;;;7.33;3.20;;;;;;;23.15;79.29;99051.03;1723320;82;21678;-78
2021/07/06 07:24:41;;;;;;;7.50;3.27;;;;;;;23.05;79.26;99045.50;1725296;82;21291;-78
2021/07/06 07:27:46;;;;;;;5.45;3.52;;;;;;;22.96;79.74;99046.70;1722774;82;21820;-78
2021/07/06 07:30:52;;;;;;;9.60;3.70;;;;;;;22.96;79.82;99057.85;1710783;82;21579;-78
2021/07/06 07:33:57;;;;;;;4.12;3.52;;;;;;;22.98;79.92;99072.33;1689674;82;21898;-78
2021/07/06 07:37:03;;;;;;;7.17;3.52;;;;;;;23.00;79.52;99066.45;1698190;83;21288;-79
2021/07/06 07:40:09;;;;;;;4.28;3.70;;;;;;;22.99;79.16;99071.76;1712518;83;21315;-79
2021/07/06 07:43:17;;;;;;;5.45;3.62;;;;;;;22.93;79.18;99064.82;1697417;83;21273;-78
2021/07/06 07:46:22;;;;;;;10.08;3.42;;;;;;;22.90;80.31;99072.91;1719546;83;21286;-78
2021/07/06 07:49:28;;;;;;;6.65;3.67;;;;;;;22.84;80.81;99072.65;1697328;83;21189;-79
2021/07/06 07:52:35;;;;;;;5.78;3.20;;;;;;;22.73;80.71;99074.66;1726074;83;21307;-79
2021/07/06 07:55:42;;;;;;;6.78;3.92;;;;;;;22.67;82.21;99074.39;1710015;83;21823;-78
2021/07/06 07:58:53;;;;;;;6.60;3.65;;;;;;;22.62;82.93;99080.81;1710318;83;21165;-78
2021/07/06 08:01:59;;;;;;;4.40;3.00;;;;;;;22.62;83.10;99071.63;1711437;83;21825;-79
2021/07/06 08:05:05;;;;;;;6.03;2.98;;;;;;;22.66;83.62;99072.17;1707229;83;21393;-79
2021/07/06 08:08:10;;;;;;;3.90;2.98;;;;;;;22.71;82.88;99074.92;1702129;83;21192;-79
2021/07/06 08:11:16;;;;;;;9.20;3.00;;;;;;;22.77;81.41;99088.84;1708727;83;21239;-79
2021/07/06 08:14:22;;;;;;;6.17;3.05;;;;;;;22.79;80.53;99080.48;1710076;83;21330;-78
2021/07/06 08:17:28;;;;;;;4.00;2.60;;;;;;;22.85;80.63;99092.43;1704858;83;21272;-78
2021/07/06 08:20:34;;;;;;;6.60;2.67;;;;;;;22.88;79.83;99096.05;1716295;83;21314;-79
2021/07/06 08:23:39;;;;;;;6.67;2.33;;;;;;;22.99;79.31;99105.22;1709994;83;21529;-79
2021/07/06 08:26:45;;;;;;;5.85;2.22;;;;;;;23.14;78.73;99086.43;1715590;83;21890;-79
2021/07/06 08:29:51;;;;;;;9.40;2.62;;;;;;;23.26;77.28;99089.45;1722623;83;21221;-78
2021/07/06 08:32:56;;;;;;;6.60;2.30;;;;;;;23.30;77.16;99083.56;1712519;83;21611;-78
2021/07/06 08:36:02;;;;;;;9.43;2.72;;;;;;;23.40;78.05;99084.88;1709828;83;21640;-78
2021/07/06 08:39:08;;;;;;;3.00;1.92;;;;;;;23.45;77.39;99102.98;1723485;82;21575;-79
2021/07/06 08:42:14;;;;;;;6.03;2.30;;;;;;;23.50;77.00;99077.83;1699458;82;21299;-79
2021/07/06 08:45:21;;;;;;;3.83;2.15;;;;;;;23.61;77.35;99093.34;1706355;83;21295;-78
2021/07/06 08:48:27;;;;;;;5.70;2.55;;;;;;;23.83;76.66;99097.69;1718659;83;21311;-78
2021/07/06 08:51:51;;;;;;;6.97;2.85;;;;;;;24.05;75.67;99096.64;1707038;83;21362;-79
2021/07/06 08:54:56;;;;;;;6.72;2.70;;;;;;;24.21;74.57;99093.95;1700028;83;21279;-79
2021/07/06 08:58:19;;;;;;;5.30;2.55;;;;;;;24.35;73.49;99085.70;1714905;83;21195;-79
2021/07/06 09:01:27;;;;;;;8.83;2.72;;;;;;;24.53;73.54;99095.31;1682356;85;21308;-79
2021/07/06 09:04:54;;;;;;;9.18;2.80;;;;;;;24.68;72.98;99086.73;1690150;83;21867;-79
2021/07/06 09:08:17;;;;;;;5.62;2.80;;;;;;;24.62;71.37;99086.53;1694906;83;21918;-79
2021/07/06 09:11:22;;;;;;;8.65;3.45;;;;;;;24.40;72.11;99083.44;1715436;83;21224;-79
2021/07/06 09:14:49;;;;;;;5.17;3.00;;;;;;;24.28;72.68;99115.11;1704989;83;21272;-79
2021/07/06 09:18:11;;;;;;;8.23;3.05;;;;;;;24.21;73.15;99111.28;1690781;85;21861;-78
2021/07/06 09:21:33;;;;;;;5.42;3.15;;;;;;;24.26;74.12;99101.44;1676352;85;21186;-79
2021/07/06 09:24:40;;;;;;;3.95;2.87;;;;;;;24.37;73.05;99113.36;1690643;85;21352;-78
2021/07/06 09:28:02;;;;;;;3.08;2.40;;;;;;;24.40;72.21;99117.80;1690448;85;21922;-78
2021/07/06 09:31:27;;;;;;;7.72;3.15;;;;;;;24.32;72.21;99122.60;1693904;83;21296;-78
2021/07/06 09:34:49;;;;;;;10.18;2.80;;;;;;;24.21;72.46;99119.09;1703320;83;21239;-79
2021/07/06 09:38:06;;;;;;;5.55;2.83;;;;;;;24.12;73.35;99118.06;1702400;83;21229;-78
2021/07/06 09:41:30;;;;;;;7.35;3.85;;;;;;;24.04;74.25;99131.26;1726022;83;21327;-78
2021/07/06 09:44:45;;;;;;;16.85;3.05;;;;;;;23.88;76.09;99129.17;1724759;83;21319;-78
2021/07/06 09:48:12;;;;;;;3.70;2.80;;;;;;;23.48;78.78;99135.89;1726973;83;21323;-78
2021/07/06 09:51:28;;;;;;;6.35;2.87;;;;;;;23.13;80.95;99162.86;1735083;81;21258;-79
2021/07/06 09:54:54;;;;;;;3.75;2.90;;;;;;;22.94;81.85;99150.69;1739324;81;21259;-78
2021/07/06 09:57:59;;;;;;;5.67;3.45;;;;;;;22.80;83.26;99149.60;1728420;82;21303;-78
2021/07/06 10:01:22;;;;;;;10.00;3.42;;;;;;;22.73;84.22;99161.63;1725172;82;21133;-79
2021/07/06 10:04:31;;;;;;;6.92;3.40;;;;;;;22.64;84.68;99157.19;1747101;82;21711;-79
2021/07/06 10:07:55;;;;;;;8.48;4.90;;;;;;;22.68;85.87;99159.13;1722465;82;21260;-79
2021/07/06 10:11:01;;;;;;;7.15;4.70;;;;;;;22.89;85.08;99189.18;1743750;81;21828;-78
2021/07/06 10:14:24;;;;;;;6.90;5.30;;;;;;;23.12;84.07;99158.41;1718461;82;21314;-79
2021/07/06 10:17:31;;;;;;;8.95;4.97;;;;;;;23.30;81.72;99163.07;1722927;82;21158;-79
2021/07/06 10:20:56;;;;;;;6.37;4.80;;;;;;;23.47;81.01;99160.71;1712531;83;21362;-79
2021/07/06 10:24:04;;;;;;;9.25;5.12;;;;;;;23.55;79.38;99206.16;1713156;83;21307;-79
2021/07/06 10:27:35;;;;;;;6.70;4.97;;;;;;;23.57;78.89;99183.00;1720080;82;21185;-79
2021/07/06 10:30:47;;;;;;;9.43;5.10;;;;;;;23.60;79.12;99179.61;1713956;83;21315;-79
2021/07/06 10:34:10;;;;;;;8.53;5.00;;;;;;;23.67;79.51;99194.13;1715226;82;21350;-78
2021/07/06 10:37:35;;;;;;;5.78;4.87;;;;;;;23.73;79.63;99196.31;1704837;83;21283;-78
2021/07/06 10:40:58;;;;;;;5.87;5.28;;;;;;;23.77;79.84;99186.23;1734093;81;21197;-79
2021/07/06 10:44:04;;;;;;;5.67;5.08;;;;;;;23.87;79.38;99181.14;1703333;83;21768;-79
2021/07/06 10:47:45;;;;;;;7.03;5.10;;;;;;;23.91;78.71;99191.44;1730312;82;21174;-79
2021/07/06 10:50:51;;;;;;;8.78;5.90;;;;;;;23.96;78.03;99201.73;1744730;81;21330;-79
2021/07/06 10:54:19;;;;;;;7.78;5.28;;;;;;;24.06;77.31;99189.08;1731900;82;21988;-79
2021/07/06 10:57:24;;;;;;;9.48;5.87;;;;;;;24.22;77.13;99198.14;1719587;81;21735;-81
2021/07/06 11:00:45;;;;;;;8.43;6.10;;;;;;;24.36;76.21;99205.28;1750501;82;21275;-79
2021/07/06 11:03:37;;;;;;;9.33;6.70;;;;;;;24.41;75.75;99190.72;1751291;82;21268;-79
2021/07/06 11:06:50;;;;;;;8.45;6.40;;;;;;;24.46;75.91;99187.05;1715588;81;21192;-79
2021/07/06 11:10:07;;;;;;;7.15;6.40;;;;;;;24.54;76.13;99191.17;1729909;81;21239;-79
2021/07/06 11:13:22;;;;;;;10.65;6.33;;;;;;;24.70;75.57;99184.27;1728079;82;21208;-79
2021/07/06 11:16:47;;;;;;;9.80;6.58;;;;;;;24.98;74.73;99172.76;1728666;81;21153;-79
2021/07/06 11:19:52;;;;;;;7.40;6.65;;;;;;;25.20;73.72;99178.66;1729184;82;21284;-80
2021/07/06 11:23:01;;;;;;;9.70;6.45;;;;;;;25.33;72.97;99206.48;1733923;82;21180;-79
2021/07/06 11:26:16;;;;;;;8.28;6.58;;;;;;;25.37;72.31;99181.54;1728271;82;21196;-79
2021/07/06 11:29:19;;;;;;;13.03;6.28;;;;;;;25.34;72.70;99189.12;1731671;82;21260;-78
2021/07/06 11:32:25;;;;;;;9.23;6.80;;;;;;;25.28;72.53;99196.77;1707175;82;21149;-79
2021/07/06 11:35:32;;;;;;;14.45;6.42;;;;;;;25.16;73.71;99183.77;1726612;82;21905;-79
2021/07/06 11:38:49;;;;;;;10.98;6.10;;;;;;;25.08;73.51;99194.20;1721787;82;21296;-79
2021/07/06 11:41:55;;;;;;;8.65;6.03;;;;;;;25.14;74.68;99186.04;1706035;82;21293;-79
2021/07/06 11:45:00;;;;;;;8.15;6.10;;;;;;;25.30;73.46;99223.04;1733394;82;21300;-79
2021/07/06 11:48:15;;;;;;;6.87;5.72;;;;;;;25.41;72.79;99197.42;1750480;81;21264;-79
2021/07/06 11:51:23;;;;;;;11.03;4.97;;;;;;;25.43;71.68;99223.71;1746190;82;21312;-79
2021/07/06 11:54:28;;;;;;;6.83;5.33;;;;;;;25.36;71.23;99241.42;1744728;81;21397;-79
2021/07/06 11:57:33;;;;;;;7.58;5.50;;;;;;;25.30;71.34;99227.23;1733230;81;21256;-79
2021/07/06 12:00:40;;;;;;;7.40;5.67;;;;;;;25.31;71.47;99223.30;1722792;82;21901;-79
2021/07/06 12:03:44;;;;;;;9.10;5.45;;;;;;;25.44;70.01;99224.80;1720660;82;22172;-79
2021/07/06 12:06:50;;;;;;;10.08;5.87;;;;;;;25.52;69.35;99228.08;1770456;81;21715;-79
2021/07/06 12:10:02;;;;;;;8.28;5.83;;;;;;;25.76;71.42;99232.23;1748177;81;21292;-80
2021/07/06 12:13:14;;;;;;;7.97;5.58;;;;;;;25.97;69.20;99251.79;1722764;83;21240;-79
2021/07/06 12:16:39;;;;;;;9.10;6.30;;;;;;;25.98;68.61;99247.30;1734012;82;22611;-78
2021/07/06 12:19:44;;;;;;;11.22;6.25;;;;;;;25.92;68.46;99240.66;1723133;83;21863;-79
2021/07/06 12:22:50;;;;;;;10.20;6.67;;;;;;;25.88;69.32;99225.63;1757870;81;21324;-79
2021/07/06 12:25:56;;;;;;;8.83;6.95;;;;;;;25.87;69.81;99264.55;1746951;81;21696;-79
2021/07/06 12:29:03;;;;;;;12.63;6.50;;;;;;;25.90;69.64;99252.19;1740974;82;21209;-79
2021/07/06 12:32:02;;;;;;;11.55;7.28;;;;;;;25.97;69.33;99237.78;1736964;82;21894;-79
2021/07/06 12:35:10;;;;;;;8.35;7.15;;;;;;;25.89;69.44;99239.32;1720458;82;21859;-79
2021/07/06 12:38:15;;;;;;;7.83;6.50;;;;;;;25.91;68.85;99248.81;1729931;81;21280;-79
2021/07/06 12:41:26;;;;;;;9.70;5.90;;;;;;;25.84;68.18;99241.38;1733897;82;21217;-79
2021/07/06 12:44:47;;;;;;;9.85;5.87;;;;;;;25.74;68.71;99246.52;1797152;80;21355;-79
2021/07/06 12:47:53;;;;;;;14.55;5.70;;;;;;;25.71;69.13;99259.15;1797298;80;21308;-78
2021/07/06 12:50:58;;;;;;;15.40;6.30;;;;;;;25.69;68.91;99262.83;1795781;80;21335;-79
2021/07/06 12:54:08;;;;;;;9.63;6.22;;;;;;;25.62;68.68;99255.92;1795773;80;21312;-78
2021/07/06 12:57:13;;;;;;;9.55;6.37;;;;;;;25.53;69.09;99264.73;1796276;80;21753;-79
2021/07/06 13:00:29;;;;;;;8.50;4.35;;;;;;;25.39;70.61;99295.41;1797580;80;21161;-79
2021/07/06 13:03:35;;;;;;;5.58;3.40;;;;;;;25.25;69.82;99284.09;1798077;80;21300;-79
2021/07/06 13:06:41;;;;;;;5.83;4.20;;;;;;;25.10;69.90;99299.11;1796779;80;21184;-78
2021/07/06 13:09:47;;;;;;;8.20;4.80;;;;;;;24.99;70.59;99275.15;1797597;80;21177;-78
2021/07/06 13:12:56;;;;;;;6.05;4.90;;;;;;;25.03;71.60;99280.42;1796332;80;21905;-79
2021/07/06 13:16:11;;;;;;;8.85;6.00;;;;;;;25.15;71.16;99289.25;1782152;80;21172;-78
2021/07/06 13:19:30;;;;;;;9.08;7.08;;;;;;;25.22;71.80;99291.71;1798125;80;21740;-78
2021/07/06 13:22:35;;;;;;;12.43;6.95;;;;;;;25.20;70.99;99298.16;1798415;80;21308;-78
2021/07/06 13:25:41;;;;;;;9.55;7.17;;;;;;;25.18;71.23;99313.85;1798709;80;21204;-79
2021/07/06 13:28:49;;;;;;;7.72;5.72;;;;;;;25.13;72.46;99298.52;1798677;80;21153;-79
2021/07/06 13:31:55;;;;;;;7.97;5.28;;;;;;;25.06;73.82;99310.58;1798676;80;21157;-78
2021/07/06 13:34:59;;;;;;;4.67;4.12;;;;;;;25.03;73.90;99314.53;1798687;80;21689;-78
2021/07/06 13:38:04;;;;;;;6.78;3.72;;;;;;;24.95;73.85;99316.86;1798622;80;21867;-78
2021/07/06 13:41:10;;;;;;;4.75;3.33;;;;;;;24.88;74.68;99329.50;1783254;79;21235;-78
2021/07/06 13:44:16;;;;;;;6.00;3.15;;;;;;;24.78;74.63;99325.41;1792922;80;21367;-78
2021/07/06 13:47:22;;;;;;;8.18;3.55;;;;;;;24.72;75.50;99333.84;1796598;80;21280;-78
2021/07/06 13:50:28;;;;;;;6.47;3.37;;;;;;;24.75;75.87;99328.25;1782546;80;21208;-78
2021/07/06 13:53:33;;;;;;;4.08;3.22;;;;;;;24.77;75.23;99344.72;1733127;82;21346;-78
2021/07/06 13:56:39;;;;;;;7.75;3.67;;;;;;;24.76;75.24;99352.84;1769539;81;21225;-78
2021/07/06 13:59:45;;;;;;;7.37;3.75;;;;;;;24.74;74.47;99355.34;1733021;82;21489;-78
2021/07/06 14:02:50;;;;;;;7.95;3.90;;;;;;;24.65;75.60;99341.72;1770599;81;21835;-78
2021/07/06 14:05:56;;;;;;;6.58;4.10;;;;;;;24.57;76.24;99344.34;1768443;81;21186;-78
2021/07/06 14:09:03;;;;;;;5.10;3.67;;;;;;;24.45;76.43;99354.47;1732982;82;21335;-78
2021/07/06 14:12:09;;;;;;;6.50;3.83;;;;;;;24.29;76.96;99357.92;1769476;81;21323;-78
2021/07/06 14:15:17;;;;;;;6.97;4.17;;;;;;;24.21;77.73;99348.75;1770501;81;21883;-78
2021/07/06 14:18:23;;;;;;;6.60;3.87;;;;;;;24.14;77.84;99353.27;1732968;82;21267;-78
2021/07/06 14:21:29;;;;;;;6.35;3.60;;;;;;;24.03;78.37;99361.41;1769673;80;21204;-78
2021/07/06 14:24:35;;;;;;;8.43;4.00;;;;;;;24.01;78.60;99356.70;1733391;82;21323;-79
2021/07/06 14:27:40;;;;;;;8.75;3.60;;;;;;;24.08;78.47;99373.12;1770473;81;21288;-78
2021/07/06 14:30:46;;;;;;;4.90;3.35;;;;;;;24.10;78.38;99368.94;1770830;81;21303;-78
2021/07/06 14:33:52;;;;;;;7.60;3.92;;;;;;;24.14;77.95;99374.78;1734247;82;21344;-78
2021/07/06 14:37:00;;;;;;;5.72;3.45;;;;;;;24.15;77.48;99380.64;1732475;82;21201;-79
2021/07/06 14:40:06;;;;;;;4.58;3.58;;;;;;;24.16;78.10;99369.16;1772677;80;21240;-78